createdAt,value
2023-11-13T00:00:05.395Z,5.63
2023-11-13T00:01:26.276Z,5.59
2023-11-13T00:02:05.217Z,5.59
2023-11-13T00:03:05.251Z,5.53
2023-11-13T00:04:05.162Z,5.71
2023-11-13T00:05:05.108Z,5.63
2023-11-13T00:06:04.923Z,5.65
2023-11-13T00:07:25.782Z,5.57
2023-11-13T00:08:04.707Z,5.54
2023-11-13T00:09:04.646Z,5.50
2023-11-13T00:10:04.600Z,5.54
2023-11-13T00:11:04.455Z,5.54
2023-11-13T00:12:04.374Z,5.59
2023-11-13T00:13:25.288Z,5.57
2023-11-13T00:14:04.200Z,5.59
2023-11-13T00:15:04.144Z,5.53
2023-11-13T00:16:04.121Z,5.53
2023-11-13T00:17:04.036Z,5.50
2023-11-13T00:18:03.920Z,5.52
2023-11-13T00:19:24.766Z,5.53
2023-11-13T00:20:03.699Z,5.62
2023-11-13T00:21:03.636Z,5.65
2023-11-13T00:22:03.542Z,5.47
2023-11-13T00:23:03.447Z,5.49
2023-11-13T00:24:03.368Z,5.54
2023-11-13T00:25:24.323Z,5.56
2023-11-13T00:26:03.191Z,5.52
2023-11-13T00:27:03.111Z,5.56
2023-11-13T00:28:03.060Z,5.52
2023-11-13T00:29:02.958Z,5.52
2023-11-13T00:30:02.866Z,5.52
2023-11-13T00:31:23.831Z,5.56
2023-11-13T00:32:02.697Z,5.52
2023-11-13T00:33:02.664Z,5.49
2023-11-13T00:34:02.535Z,5.53
2023-11-13T00:35:02.520Z,5.42
2023-11-13T00:36:02.354Z,5.47
2023-11-13T00:37:23.287Z,5.59
2023-11-13T00:38:02.173Z,5.54
2023-11-13T00:39:02.090Z,5.44
2023-11-13T00:40:02.031Z,5.47
2023-11-13T00:41:03.381Z,5.54
2023-11-13T00:42:01.835Z,5.41
2023-11-13T00:43:22.810Z,5.56
2023-11-13T00:44:01.675Z,5.60
2023-11-13T00:45:01.598Z,5.38
2023-11-13T00:46:01.562Z,5.41
2023-11-13T00:47:01.527Z,5.38
2023-11-13T00:48:01.376Z,5.41
2023-11-13T00:49:22.325Z,5.45
2023-11-13T00:50:01.174Z,5.39
2023-11-13T00:51:01.082Z,5.57
2023-11-13T00:52:01.013Z,5.42
2023-11-13T00:53:00.905Z,5.57
2023-11-13T00:54:00.820Z,5.45
2023-11-13T00:55:21.869Z,5.52
2023-11-13T00:56:00.657Z,5.57
2023-11-13T00:57:00.584Z,5.54
2023-11-13T00:58:00.580Z,5.50
2023-11-13T00:59:00.403Z,5.62
2023-11-13T01:00:00.390Z,5.63
2023-11-13T01:01:21.355Z,5.56
2023-11-13T01:02:00.199Z,5.54
2023-11-13T01:03:00.157Z,5.56
2023-11-13T01:04:00.025Z,5.57
2023-11-13T01:04:59.907Z,5.53
2023-11-13T01:05:59.818Z,5.52
2023-11-13T01:07:20.737Z,5.52
2023-11-13T01:07:59.635Z,5.42
2023-11-13T01:08:59.560Z,5.44
2023-11-13T01:09:59.518Z,5.45
2023-11-13T01:10:59.401Z,5.44
2023-11-13T01:11:59.381Z,5.39
2023-11-13T01:13:20.244Z,5.47
2023-11-13T01:13:59.166Z,5.47
2023-11-13T01:14:59.055Z,5.39
2023-11-13T01:15:59.031Z,5.39
2023-11-13T01:16:58.918Z,5.44
2023-11-13T01:17:58.965Z,5.47
2023-11-13T01:19:19.721Z,5.42
2023-11-13T01:19:58.629Z,5.42
2023-11-13T01:20:58.542Z,5.53
2023-11-13T01:21:58.506Z,5.35
2023-11-13T01:22:58.382Z,5.45
2023-11-13T01:23:58.286Z,5.38
2023-11-13T01:25:19.210Z,5.38
2023-11-13T01:25:58.124Z,5.41
2023-11-13T01:26:58.049Z,5.26
2023-11-13T01:27:57.970Z,5.28
2023-11-13T01:28:57.872Z,5.31
2023-11-13T01:29:57.780Z,5.31
2023-11-13T01:31:18.718Z,5.32
2023-11-13T01:31:57.630Z,5.31
2023-11-13T01:32:57.646Z,5.31
2023-11-13T01:33:57.519Z,5.28
2023-11-13T01:34:57.374Z,5.31
2023-11-13T01:35:57.274Z,5.29
2023-11-13T01:37:18.186Z,5.28
2023-11-13T01:37:57.106Z,5.35
2023-11-13T01:38:57.018Z,5.29
2023-11-13T01:39:56.971Z,5.35
2023-11-13T01:40:56.859Z,5.32
2023-11-13T01:41:56.766Z,5.31
2023-11-13T01:43:17.723Z,5.29
2023-11-13T01:43:56.603Z,5.26
2023-11-13T01:44:56.515Z,5.26
2023-11-13T01:45:56.536Z,5.29
2023-11-13T01:46:56.428Z,5.23
2023-11-13T01:47:56.291Z,5.26
2023-11-13T01:49:17.190Z,5.26
2023-11-13T01:49:56.099Z,5.23
2023-11-13T01:50:56.004Z,5.23
2023-11-13T01:51:55.989Z,5.17
2023-11-13T01:52:55.836Z,5.14
2023-11-13T01:53:55.744Z,5.18
2023-11-13T01:55:16.648Z,5.24
2023-11-13T01:55:55.581Z,5.20
2023-11-13T01:56:55.501Z,5.17
2023-11-13T01:57:55.420Z,5.16
2023-11-13T01:58:55.328Z,5.18
2023-11-13T01:59:55.242Z,5.21
2023-11-13T02:01:16.161Z,5.24
2023-11-13T02:01:55.087Z,5.26
2023-11-13T02:02:55.030Z,5.32
2023-11-13T02:03:55.066Z,5.24
2023-11-13T02:04:54.831Z,5.31
2023-11-13T02:05:54.734Z,5.26
2023-11-13T02:07:15.675Z,5.28
2023-11-13T02:07:54.570Z,5.24
2023-11-13T02:08:54.478Z,5.29
2023-11-13T02:09:54.476Z,5.21
2023-11-13T02:10:54.320Z,5.14
2023-11-13T02:11:54.221Z,5.26
2023-11-13T02:13:15.153Z,5.26
2023-11-13T02:13:54.061Z,5.17
2023-11-13T02:14:53.975Z,5.24
2023-11-13T02:15:53.918Z,5.18
2023-11-13T02:16:53.831Z,5.24
2023-11-13T02:17:53.723Z,5.29
2023-11-13T02:19:14.645Z,5.29
2023-11-13T02:19:53.596Z,5.32
2023-11-13T02:20:53.465Z,5.34
2023-11-13T02:21:53.387Z,5.32
2023-11-13T02:22:53.303Z,5.26
2023-11-13T02:23:53.203Z,5.32
2023-11-13T02:25:14.152Z,5.29
2023-11-13T02:25:53.045Z,5.38
2023-11-13T02:26:52.952Z,5.31
2023-11-13T02:27:52.898Z,5.28
2023-11-13T02:28:52.792Z,5.35
2023-11-13T02:29:52.698Z,5.32
2023-11-13T02:31:13.760Z,5.32
2023-11-13T02:31:52.568Z,5.31
2023-11-13T02:32:52.484Z,5.31
2023-11-13T02:33:52.393Z,5.31
2023-11-13T02:34:52.279Z,5.29
2023-11-13T02:35:52.196Z,5.24
2023-11-13T02:37:13.143Z,5.31
2023-11-13T02:37:52.027Z,5.29
2023-11-13T02:38:51.943Z,5.35
2023-11-13T02:39:51.883Z,5.36
2023-11-13T02:40:51.774Z,5.35
2023-11-13T02:41:51.683Z,5.39
2023-11-13T02:43:12.686Z,5.44
2023-11-13T02:43:51.521Z,5.41
2023-11-13T02:44:51.466Z,5.38
2023-11-13T02:45:51.361Z,5.50
2023-11-13T02:46:51.299Z,5.56
2023-11-13T02:47:51.179Z,5.45
2023-11-13T02:49:12.114Z,5.53
2023-11-13T02:49:51.005Z,5.50
2023-11-13T02:50:53.933Z,5.41
2023-11-13T02:51:50.889Z,5.50
2023-11-13T02:52:50.762Z,5.36
2023-11-13T02:53:50.670Z,5.45
2023-11-13T02:55:11.610Z,5.47
2023-11-13T02:55:50.506Z,5.38
2023-11-13T02:56:50.414Z,5.42
2023-11-13T02:57:50.344Z,5.47
2023-11-13T02:58:50.239Z,5.44
2023-11-13T02:59:50.158Z,5.39
2023-11-13T03:01:11.116Z,5.47
2023-11-13T03:01:50.055Z,5.45
2023-11-13T03:02:49.967Z,5.50
2023-11-13T03:03:49.919Z,5.42
2023-11-13T03:04:49.737Z,5.41
2023-11-13T03:05:49.654Z,5.53
2023-11-13T03:07:10.588Z,5.57
2023-11-13T03:07:49.483Z,5.54
2023-11-13T03:08:49.395Z,5.54
2023-11-13T03:09:49.334Z,5.53
2023-11-13T03:10:49.239Z,5.52
2023-11-13T03:11:49.150Z,5.56
2023-11-13T03:13:10.071Z,5.49
2023-11-13T03:13:48.975Z,5.54
2023-11-13T03:14:48.894Z,5.53
2023-11-13T03:15:48.823Z,5.56
2023-11-13T03:16:48.753Z,5.54
2023-11-13T03:17:48.652Z,5.50
2023-11-13T03:19:09.526Z,5.53
2023-11-13T03:19:48.458Z,5.52
2023-11-13T03:20:48.390Z,5.52
2023-11-13T03:21:48.324Z,5.59
2023-11-13T03:22:48.220Z,5.54
2023-11-13T03:23:48.130Z,5.56
2023-11-13T03:25:09.100Z,5.57
2023-11-13T03:25:47.956Z,5.62
2023-11-13T03:26:47.870Z,5.56
2023-11-13T03:27:47.814Z,5.62
2023-11-13T03:28:47.748Z,5.56
2023-11-13T03:29:47.618Z,5.50
2023-11-13T03:31:08.556Z,5.56
2023-11-13T03:31:47.610Z,5.60
2023-11-13T03:32:47.433Z,5.62
2023-11-13T03:33:47.286Z,5.63
2023-11-13T03:34:47.204Z,5.53
2023-11-13T03:35:47.110Z,5.68
2023-11-13T03:37:08.090Z,5.63
2023-11-13T03:37:46.947Z,5.49
2023-11-13T03:38:46.858Z,5.60
2023-11-13T03:39:46.774Z,5.62
2023-11-13T03:40:46.688Z,5.65
2023-11-13T03:41:46.610Z,5.68
2023-11-13T03:43:07.566Z,5.56
2023-11-13T03:43:46.430Z,5.60
2023-11-13T03:44:46.342Z,5.62
2023-11-13T03:45:46.265Z,5.53
2023-11-13T03:46:46.227Z,5.59
2023-11-13T03:47:46.144Z,5.62
2023-11-13T03:49:07.015Z,5.54
2023-11-13T03:49:45.931Z,5.59
2023-11-13T03:50:45.856Z,5.67
2023-11-13T03:51:45.762Z,5.59
2023-11-13T03:52:45.674Z,5.57
2023-11-13T03:53:45.587Z,5.62
2023-11-13T03:55:06.506Z,5.65
2023-11-13T03:55:45.421Z,5.65
2023-11-13T03:56:45.354Z,5.59
2023-11-13T03:57:45.249Z,5.63
2023-11-13T03:58:45.167Z,5.54
2023-11-13T03:59:45.090Z,5.59
2023-11-13T04:01:06.065Z,5.52
2023-11-13T04:01:44.969Z,5.56
2023-11-13T04:02:44.846Z,5.53
2023-11-13T04:03:44.770Z,5.53
2023-11-13T04:04:44.702Z,5.52
2023-11-13T04:05:44.637Z,5.49
2023-11-13T04:07:05.503Z,5.53
2023-11-13T04:07:44.404Z,5.53
2023-11-13T04:08:44.325Z,5.53
2023-11-13T04:09:44.237Z,5.54
2023-11-13T04:10:44.168Z,5.62
2023-11-13T04:11:44.072Z,5.52
2023-11-13T04:13:04.980Z,5.54
2023-11-13T04:13:43.898Z,5.52
2023-11-13T04:14:43.812Z,5.56
2023-11-13T04:15:43.769Z,5.53
2023-11-13T04:16:43.806Z,5.59
2023-11-13T04:17:43.578Z,5.54
2023-11-13T04:19:04.497Z,5.45
2023-11-13T04:19:43.391Z,5.53
2023-11-13T04:20:43.299Z,5.54
2023-11-13T04:21:43.221Z,5.54
2023-11-13T04:22:43.133Z,5.54
2023-11-13T04:23:43.048Z,5.54
2023-11-13T04:25:04.034Z,5.54
2023-11-13T04:25:42.882Z,5.56
2023-11-13T04:26:42.790Z,5.57
2023-11-13T04:27:42.724Z,5.53
2023-11-13T04:28:42.635Z,5.53
2023-11-13T04:29:42.539Z,5.56
2023-11-13T04:31:03.479Z,5.53
2023-11-13T04:31:42.370Z,5.57
2023-11-13T04:32:42.372Z,5.52
2023-11-13T04:33:42.253Z,5.53
2023-11-13T04:34:42.121Z,5.59
2023-11-13T04:35:42.084Z,5.54
2023-11-13T04:37:02.944Z,5.53
2023-11-13T04:37:41.867Z,5.67
2023-11-13T04:38:41.779Z,5.62
2023-11-13T04:39:41.695Z,5.59
2023-11-13T04:40:41.615Z,5.68
2023-11-13T04:41:41.521Z,5.60
2023-11-13T04:43:03.448Z,5.52
2023-11-13T04:43:41.397Z,5.56
2023-11-13T04:44:41.273Z,5.56
2023-11-13T04:45:41.238Z,5.59
2023-11-13T04:46:41.180Z,5.57
2023-11-13T04:47:41.053Z,5.65
2023-11-13T04:49:01.935Z,5.53
2023-11-13T04:49:40.848Z,5.50
2023-11-13T04:50:40.767Z,5.52
2023-11-13T04:51:40.679Z,5.63
2023-11-13T04:52:40.606Z,5.60
2023-11-13T04:53:40.532Z,5.59
2023-11-13T04:55:01.426Z,5.63
2023-11-13T04:55:40.340Z,5.63
2023-11-13T04:56:40.265Z,5.63
2023-11-13T04:57:40.169Z,5.63
2023-11-13T04:58:40.128Z,5.60
2023-11-13T04:59:40.004Z,5.60
2023-11-13T05:01:00.963Z,5.54
2023-11-13T05:01:39.890Z,5.59
2023-11-13T05:02:39.795Z,5.57
2023-11-13T05:03:39.689Z,5.57
2023-11-13T05:04:39.603Z,5.70
2023-11-13T05:05:39.495Z,5.63
2023-11-13T05:07:00.407Z,5.68
2023-11-13T05:07:39.337Z,5.74
2023-11-13T05:08:39.236Z,5.72
2023-11-13T05:09:39.160Z,5.68
2023-11-13T05:10:39.080Z,5.71
2023-11-13T05:11:38.991Z,5.65
2023-11-13T05:12:59.919Z,5.62
2023-11-13T05:13:38.819Z,5.65
2023-11-13T05:14:38.727Z,5.68
2023-11-13T05:15:38.678Z,5.70
2023-11-13T05:16:38.679Z,5.63
2023-11-13T05:17:38.657Z,5.68
2023-11-13T05:18:59.409Z,5.63
2023-11-13T05:19:38.321Z,5.67
2023-11-13T05:20:38.223Z,5.62
2023-11-13T05:21:38.137Z,5.67
2023-11-13T05:22:38.063Z,5.68
2023-11-13T05:23:37.967Z,5.63
2023-11-13T05:24:58.865Z,5.56
2023-11-13T05:25:37.843Z,5.54
2023-11-13T05:26:37.712Z,5.60
2023-11-13T05:27:37.627Z,5.63
2023-11-13T05:28:37.549Z,5.65
2023-11-13T05:29:37.468Z,5.71
2023-11-13T05:30:58.373Z,5.65
2023-11-13T05:31:37.328Z,5.65
2023-11-13T05:32:37.216Z,5.72
2023-11-13T05:33:37.125Z,5.68
2023-11-13T05:34:37.032Z,5.70
2023-11-13T05:35:36.949Z,5.74
2023-11-13T05:36:57.877Z,5.70
2023-11-13T05:37:36.783Z,5.75
2023-11-13T05:38:36.697Z,5.71
2023-11-13T05:39:36.625Z,5.78
2023-11-13T05:40:36.609Z,5.80
2023-11-13T05:41:36.441Z,5.92
2023-11-13T05:42:57.337Z,5.86
2023-11-13T05:43:36.300Z,5.78
2023-11-13T05:44:36.204Z,5.85
2023-11-13T05:45:36.101Z,5.85
2023-11-13T05:46:36.106Z,5.83
2023-11-13T05:47:35.947Z,5.80
2023-11-13T05:48:56.852Z,5.83
2023-11-13T05:49:35.881Z,5.89
2023-11-13T05:50:35.682Z,5.81
2023-11-13T05:51:35.603Z,5.83
2023-11-13T05:52:35.572Z,5.81
2023-11-13T05:53:35.426Z,5.88
2023-11-13T05:54:56.359Z,5.86
2023-11-13T05:55:35.357Z,5.89
2023-11-13T05:56:35.173Z,5.96
2023-11-13T05:57:35.093Z,5.93
2023-11-13T05:58:35.074Z,5.99
2023-11-13T05:59:34.917Z,5.93
2023-11-13T06:00:55.842Z,6.00
2023-11-13T06:01:34.791Z,5.92
2023-11-13T06:02:34.706Z,5.96
2023-11-13T06:03:34.629Z,5.93
2023-11-13T06:04:34.582Z,5.93
2023-11-13T06:05:34.415Z,5.93
2023-11-13T06:06:55.399Z,5.93
2023-11-13T06:07:34.299Z,5.89
2023-11-13T06:08:36.188Z,5.93
2023-11-13T06:09:34.081Z,5.93
2023-11-13T06:10:34.236Z,5.92
2023-11-13T06:11:33.922Z,5.96
2023-11-13T06:12:54.804Z,5.93
2023-11-13T06:13:33.795Z,6.03
2023-11-13T06:14:33.662Z,6.03
2023-11-13T06:15:33.570Z,5.97
2023-11-13T06:16:33.556Z,6.08
2023-11-13T06:17:33.464Z,6.04
2023-11-13T06:18:54.513Z,6.10
2023-11-13T06:19:33.273Z,6.04
2023-11-13T06:20:33.145Z,6.07
2023-11-13T06:21:33.067Z,5.99
2023-11-13T06:22:33.040Z,6.00
2023-11-13T06:23:32.904Z,6.08
2023-11-13T06:24:53.809Z,6.00
2023-11-13T06:25:32.744Z,6.04
2023-11-13T06:26:32.660Z,6.10
2023-11-13T06:27:32.566Z,6.11
2023-11-13T06:28:32.496Z,6.08
2023-11-13T06:29:32.396Z,6.07
2023-11-13T06:30:53.396Z,6.10
2023-11-13T06:31:32.274Z,6.13
2023-11-13T06:32:32.166Z,6.10
2023-11-13T06:33:32.051Z,6.18
2023-11-13T06:34:31.977Z,6.17
2023-11-13T06:35:31.902Z,6.14
2023-11-13T06:36:55.603Z,6.26
2023-11-13T06:37:31.733Z,6.15
2023-11-13T06:38:31.632Z,6.22
2023-11-13T06:39:31.543Z,6.22
2023-11-13T06:40:31.484Z,6.24
2023-11-13T06:41:31.372Z,6.22
2023-11-13T06:42:52.274Z,6.22
2023-11-13T06:43:31.232Z,6.27
2023-11-13T06:44:31.129Z,6.34
2023-11-13T06:45:31.044Z,6.36
2023-11-13T06:46:31.039Z,6.36
2023-11-13T06:47:30.893Z,6.32
2023-11-13T06:48:51.762Z,6.39
2023-11-13T06:49:30.752Z,6.36
2023-11-13T06:50:30.626Z,6.37
2023-11-13T06:51:30.561Z,6.39
2023-11-13T06:52:30.531Z,6.36
2023-11-13T06:53:30.361Z,6.45
2023-11-13T06:54:51.263Z,6.45
2023-11-13T06:55:30.231Z,6.42
2023-11-13T06:56:30.117Z,6.44
2023-11-13T06:57:30.036Z,6.45
2023-11-13T06:58:29.958Z,6.44
2023-11-13T06:59:29.862Z,6.41
2023-11-13T07:00:50.756Z,6.41
2023-11-13T07:01:29.751Z,6.48
2023-11-13T07:02:29.634Z,6.51
2023-11-13T07:03:29.602Z,6.60
2023-11-13T07:04:29.465Z,6.54
2023-11-13T07:05:29.352Z,6.54
2023-11-13T07:06:50.258Z,6.55
2023-11-13T07:07:29.306Z,6.59
2023-11-13T07:08:29.098Z,6.51
2023-11-13T07:09:29.028Z,6.60
2023-11-13T07:10:30.769Z,6.66
2023-11-13T07:11:28.848Z,6.59
2023-11-13T07:12:49.738Z,6.63
2023-11-13T07:13:28.693Z,6.65
2023-11-13T07:14:28.610Z,6.55
2023-11-13T07:15:28.512Z,6.68
2023-11-13T07:16:28.485Z,6.63
2023-11-13T07:17:28.384Z,6.63
2023-11-13T07:18:49.247Z,6.66
2023-11-13T07:19:28.224Z,6.73
2023-11-13T07:20:28.097Z,6.70
2023-11-13T07:21:28.009Z,6.76
2023-11-13T07:22:27.929Z,6.70
2023-11-13T07:23:27.837Z,6.73
2023-11-13T07:24:48.745Z,6.65
2023-11-13T07:25:27.688Z,6.65
2023-11-13T07:26:27.616Z,6.78
2023-11-13T07:27:27.503Z,6.81
2023-11-13T07:28:27.455Z,6.72
2023-11-13T07:29:27.338Z,6.83
2023-11-13T07:30:48.239Z,6.81
2023-11-13T07:31:27.246Z,6.80
2023-11-13T07:32:27.137Z,6.88
2023-11-13T07:33:27.013Z,6.94
2023-11-13T07:34:26.943Z,6.93
2023-11-13T07:35:26.834Z,6.91
2023-11-13T07:36:50.393Z,6.87
2023-11-13T07:37:26.727Z,6.87
2023-11-13T07:38:26.576Z,6.88
2023-11-13T07:39:26.497Z,6.81
2023-11-13T07:40:26.432Z,6.86
2023-11-13T07:41:26.347Z,6.94
2023-11-13T07:42:47.235Z,6.93
2023-11-13T07:43:26.210Z,6.87
2023-11-13T07:44:26.065Z,6.98
2023-11-13T07:45:25.985Z,6.96
2023-11-13T07:46:25.943Z,6.91
2023-11-13T07:47:25.819Z,6.98
2023-11-13T07:48:46.711Z,7.05
2023-11-13T07:49:25.683Z,6.96
2023-11-13T07:50:25.575Z,6.96
2023-11-13T07:51:25.479Z,6.94
2023-11-13T07:52:25.413Z,7.01
2023-11-13T07:53:25.321Z,7.06
2023-11-13T07:54:46.217Z,7.08
2023-11-13T07:55:25.200Z,7.17
2023-11-13T07:56:25.072Z,7.16
2023-11-13T07:57:24.981Z,7.26
2023-11-13T07:58:24.967Z,7.39
2023-11-13T07:59:24.832Z,7.27
2023-11-13T08:00:45.712Z,7.38
2023-11-13T08:01:24.706Z,7.34
2023-11-13T08:02:24.776Z,7.42
2023-11-13T08:03:24.485Z,7.42
2023-11-13T08:04:24.505Z,7.53
2023-11-13T08:05:24.307Z,7.64
2023-11-13T08:06:45.209Z,7.63
2023-11-13T08:07:26.058Z,7.59
2023-11-13T08:08:24.055Z,7.68
2023-11-13T08:09:24.034Z,7.72
2023-11-13T08:10:23.912Z,7.68
2023-11-13T08:11:23.803Z,7.81
2023-11-13T08:12:44.722Z,7.82
2023-11-13T08:13:23.646Z,7.86
2023-11-13T08:14:23.558Z,7.94
2023-11-13T08:15:23.468Z,8.17
2023-11-13T08:16:23.478Z,8.24
2023-11-13T08:17:23.338Z,8.30
2023-11-13T08:18:44.208Z,8.40
2023-11-13T08:19:23.151Z,8.51
2023-11-13T08:20:23.058Z,8.66
2023-11-13T08:21:22.977Z,8.70
2023-11-13T08:22:22.926Z,8.72
2023-11-13T08:23:22.819Z,8.79
2023-11-13T08:24:43.694Z,8.87
2023-11-13T08:25:22.661Z,8.87
2023-11-13T08:26:22.550Z,8.95
2023-11-13T08:27:22.486Z,8.97
2023-11-13T08:28:22.430Z,8.98
2023-11-13T08:29:22.305Z,9.00
2023-11-13T08:30:43.261Z,9.13
2023-11-13T08:31:22.431Z,9.02
2023-11-13T08:32:22.213Z,9.03
2023-11-13T08:33:22.018Z,9.17
2023-11-13T08:34:21.932Z,9.20
2023-11-13T08:35:21.813Z,9.14
2023-11-13T08:36:42.692Z,9.16
2023-11-13T08:37:21.651Z,9.29
2023-11-13T08:38:21.551Z,9.34
2023-11-13T08:39:21.473Z,9.34
2023-11-13T08:40:21.454Z,9.34
2023-11-13T08:41:21.299Z,9.35
2023-11-13T08:42:42.193Z,9.31
2023-11-13T08:43:21.148Z,9.38
2023-11-13T08:44:21.077Z,9.49
2023-11-13T08:45:20.991Z,9.56
2023-11-13T08:46:21.020Z,9.47
2023-11-13T08:47:20.863Z,9.53
2023-11-13T08:48:41.702Z,9.45
2023-11-13T08:49:20.643Z,9.64
2023-11-13T08:50:20.572Z,9.58
2023-11-13T08:51:20.467Z,9.67
2023-11-13T08:52:20.405Z,9.67
2023-11-13T08:53:20.306Z,9.78
2023-11-13T08:54:41.205Z,9.83
2023-11-13T08:55:20.191Z,9.82
2023-11-13T08:56:20.089Z,9.89
2023-11-13T08:57:19.971Z,9.90
2023-11-13T08:58:19.917Z,9.92
2023-11-13T08:59:19.862Z,9.89
2023-11-13T09:00:40.736Z,9.97
2023-11-13T09:01:19.711Z,9.88
2023-11-13T09:02:19.648Z,9.90
2023-11-13T09:03:19.611Z,9.88
2023-11-13T09:04:19.524Z,9.97
2023-11-13T09:05:19.309Z,9.93
2023-11-13T09:06:40.220Z,10.00
2023-11-13T09:07:19.164Z,9.98
2023-11-13T09:08:19.058Z,10.06
2023-11-13T09:09:18.977Z,10.08
2023-11-13T09:10:18.942Z,10.08
2023-11-13T09:11:18.814Z,10.00
2023-11-13T09:12:39.710Z,10.08
2023-11-13T09:13:18.657Z,10.19
2023-11-13T09:14:18.575Z,10.19
2023-11-13T09:15:18.474Z,10.18
2023-11-13T09:16:18.482Z,10.08
2023-11-13T09:17:18.322Z,10.21
2023-11-13T09:18:39.211Z,10.15
2023-11-13T09:19:18.175Z,10.23
2023-11-13T09:20:18.066Z,10.26
2023-11-13T09:21:17.979Z,10.22
2023-11-13T09:22:17.938Z,10.36
2023-11-13T09:23:17.815Z,10.25
2023-11-13T09:24:38.724Z,10.33
2023-11-13T09:25:17.701Z,10.36
2023-11-13T09:26:17.572Z,10.34
2023-11-13T09:27:17.492Z,10.37
2023-11-13T09:28:17.424Z,10.40
2023-11-13T09:29:17.320Z,10.33
2023-11-13T09:30:38.225Z,10.33
2023-11-13T09:31:17.186Z,10.34
2023-11-13T09:32:17.073Z,10.37
2023-11-13T09:33:17.042Z,10.33
2023-11-13T09:34:16.944Z,10.47
2023-11-13T09:35:16.839Z,10.40
2023-11-13T09:36:37.733Z,10.43
2023-11-13T09:37:16.808Z,10.39
2023-11-13T09:38:16.587Z,10.37
2023-11-13T09:39:16.513Z,10.39
2023-11-13T09:40:16.436Z,10.37
2023-11-13T09:41:16.332Z,10.40
2023-11-13T09:42:37.232Z,10.36
2023-11-13T09:43:16.475Z,10.41
2023-11-13T09:44:16.081Z,10.37
2023-11-13T09:45:16.001Z,10.43
2023-11-13T09:46:15.995Z,10.49
2023-11-13T09:47:15.839Z,10.53
2023-11-13T09:48:36.745Z,10.47
2023-11-13T09:49:15.738Z,10.46
2023-11-13T09:50:15.600Z,10.51
2023-11-13T09:51:27.384Z,10.46
2023-11-13T09:52:15.480Z,10.40
2023-11-13T09:53:15.342Z,10.51
2023-11-13T09:54:36.247Z,10.49
2023-11-13T09:55:15.216Z,10.46
2023-11-13T09:56:15.098Z,10.51
2023-11-13T09:57:15.027Z,10.44
2023-11-13T09:58:14.956Z,10.46
2023-11-13T09:59:14.851Z,10.58
2023-11-13T10:00:35.759Z,10.49
2023-11-13T10:01:14.828Z,10.49
2023-11-13T10:02:14.678Z,10.47
2023-11-13T10:03:14.556Z,10.47
2023-11-13T10:04:14.571Z,10.55
2023-11-13T10:05:14.450Z,10.49
2023-11-13T10:06:35.262Z,10.51
2023-11-13T10:07:14.253Z,10.47
2023-11-13T10:08:14.117Z,10.53
2023-11-13T10:09:14.057Z,10.55
2023-11-13T10:10:13.974Z,10.51
2023-11-13T10:11:13.884Z,10.56
2023-11-13T10:12:34.777Z,10.58
2023-11-13T10:13:14.303Z,10.62
2023-11-13T10:14:13.620Z,10.62
2023-11-13T10:15:13.709Z,10.63
2023-11-13T10:16:13.538Z,10.55
2023-11-13T10:17:13.429Z,10.49
2023-11-13T10:18:34.436Z,10.56
2023-11-13T10:19:13.232Z,10.56
2023-11-13T10:20:13.126Z,10.56
2023-11-13T10:21:13.048Z,10.47
2023-11-13T10:22:13.006Z,10.43
2023-11-13T10:23:12.874Z,10.46
2023-11-13T10:24:41.375Z,10.46
2023-11-13T10:25:12.792Z,10.47
2023-11-13T10:26:12.632Z,10.39
2023-11-13T10:27:12.549Z,10.49
2023-11-13T10:28:12.510Z,10.40
2023-11-13T10:29:12.389Z,10.46
2023-11-13T10:30:33.283Z,10.43
2023-11-13T10:31:12.293Z,10.46
2023-11-13T10:32:12.136Z,10.46
2023-11-13T10:33:12.104Z,10.49
2023-11-13T10:34:12.002Z,10.43
2023-11-13T10:35:11.889Z,10.41
2023-11-13T10:36:34.011Z,10.36
2023-11-13T10:37:11.829Z,10.44
2023-11-13T10:38:11.653Z,10.40
2023-11-13T10:39:13.483Z,10.43
2023-11-13T10:40:11.510Z,10.41
2023-11-13T10:41:11.397Z,10.41
2023-11-13T10:42:32.309Z,10.39
2023-11-13T10:43:11.254Z,10.39
2023-11-13T10:44:11.156Z,10.39
2023-11-13T10:45:11.090Z,10.39
2023-11-13T10:46:11.059Z,10.44
2023-11-13T10:47:10.992Z,10.40
2023-11-13T10:48:31.816Z,10.43
2023-11-13T10:49:10.786Z,10.36
2023-11-13T10:50:10.662Z,10.43
2023-11-13T10:51:10.681Z,10.43
2023-11-13T10:52:10.523Z,10.41
2023-11-13T10:53:10.419Z,10.39
2023-11-13T10:54:33.136Z,10.41
2023-11-13T10:55:10.292Z,10.37
2023-11-13T10:56:10.184Z,10.41
2023-11-13T10:57:10.099Z,10.46
2023-11-13T10:58:10.046Z,10.47
2023-11-13T10:59:11.104Z,10.43
2023-11-13T11:00:30.826Z,10.51
2023-11-13T11:01:09.818Z,10.46
2023-11-13T11:02:09.770Z,10.47
2023-11-13T11:03:09.710Z,10.43
2023-11-13T11:04:09.589Z,10.43
2023-11-13T11:05:09.463Z,10.46
2023-11-13T11:06:30.331Z,10.47
2023-11-13T11:07:09.289Z,10.56
2023-11-13T11:08:09.186Z,10.55
2023-11-13T11:09:09.324Z,10.43
2023-11-13T11:10:09.269Z,10.51
2023-11-13T11:11:08.942Z,10.53
2023-11-13T11:12:29.845Z,10.47
2023-11-13T11:13:08.803Z,10.55
2023-11-13T11:14:08.695Z,10.56
2023-11-13T11:15:08.620Z,10.55
2023-11-13T11:16:08.551Z,10.51
2023-11-13T11:17:08.524Z,10.59
2023-11-13T11:18:29.348Z,10.56
2023-11-13T11:19:08.307Z,10.53
2023-11-13T11:20:08.220Z,10.56
2023-11-13T11:21:08.145Z,10.49
2023-11-13T11:22:08.069Z,10.56
2023-11-13T11:23:07.971Z,10.47
2023-11-13T11:24:28.871Z,10.53
2023-11-13T11:25:07.824Z,10.59
2023-11-13T11:26:07.726Z,10.58
2023-11-13T11:27:07.638Z,10.51
2023-11-13T11:28:07.574Z,10.47
2023-11-13T11:29:07.490Z,10.49
2023-11-13T11:30:28.369Z,10.47
2023-11-13T11:31:07.354Z,10.53
2023-11-13T11:32:07.228Z,10.49
2023-11-13T11:33:07.316Z,10.53
2023-11-13T11:34:07.154Z,10.55
2023-11-13T11:35:06.992Z,10.46
2023-11-13T11:36:27.877Z,10.46
2023-11-13T11:37:06.841Z,10.43
2023-11-13T11:38:06.731Z,10.37
2023-11-13T11:39:06.645Z,10.39
2023-11-13T11:40:06.604Z,10.37
2023-11-13T11:41:06.491Z,10.25
2023-11-13T11:42:27.391Z,10.33
2023-11-13T11:43:06.332Z,10.25
2023-11-13T11:44:06.243Z,10.29
2023-11-13T11:45:06.158Z,10.29
2023-11-13T11:46:08.270Z,10.40
2023-11-13T11:47:11.710Z,10.23
2023-11-13T11:48:26.928Z,10.33
2023-11-13T11:49:05.898Z,10.33
2023-11-13T11:50:05.754Z,10.23
2023-11-13T11:51:05.663Z,10.29
2023-11-13T11:52:05.622Z,10.29
2023-11-13T11:53:05.502Z,10.23
2023-11-13T11:54:26.407Z,10.39
2023-11-13T11:55:05.466Z,10.36
2023-11-13T11:56:05.273Z,10.31
2023-11-13T11:57:05.200Z,10.26
2023-11-13T11:58:05.140Z,10.29
2023-11-13T11:59:05.019Z,10.21
2023-11-13T12:00:25.929Z,10.25
2023-11-13T12:01:04.973Z,10.31
2023-11-13T12:02:04.868Z,10.36
2023-11-13T12:03:04.807Z,10.33
2023-11-13T12:04:04.681Z,10.36
2023-11-13T12:05:04.528Z,10.28
2023-11-13T12:06:25.432Z,10.26
2023-11-13T12:07:04.388Z,10.25
2023-11-13T12:08:04.281Z,10.23
2023-11-13T12:09:04.192Z,10.21
2023-11-13T12:10:04.173Z,10.19
2023-11-13T12:11:04.028Z,10.21
2023-11-13T12:12:24.935Z,10.25
2023-11-13T12:13:03.930Z,10.26
2023-11-13T12:14:03.882Z,10.19
2023-11-13T12:15:03.708Z,10.26
2023-11-13T12:16:03.762Z,10.28
2023-11-13T12:17:03.572Z,10.22
2023-11-13T12:18:24.443Z,10.22
2023-11-13T12:19:03.463Z,10.23
2023-11-13T12:20:13.561Z,10.34
2023-11-13T12:21:03.206Z,10.23
2023-11-13T12:22:03.135Z,10.18
2023-11-13T12:23:03.045Z,10.25
2023-11-13T12:24:23.944Z,10.26
2023-11-13T12:25:02.884Z,10.22
2023-11-13T12:26:02.798Z,10.26
2023-11-13T12:27:02.720Z,10.23
2023-11-13T12:28:02.634Z,10.28
2023-11-13T12:29:02.569Z,10.25
2023-11-13T12:30:23.467Z,10.22
2023-11-13T12:31:02.455Z,10.31
2023-11-13T12:32:02.575Z,10.39
2023-11-13T12:33:02.256Z,10.36
2023-11-13T12:34:02.168Z,10.36
2023-11-13T12:35:02.100Z,10.34
2023-11-13T12:36:22.965Z,10.33
2023-11-13T12:37:01.905Z,10.33
2023-11-13T12:38:01.826Z,10.33
2023-11-13T12:39:01.736Z,10.36
2023-11-13T12:40:01.659Z,10.37
2023-11-13T12:41:01.572Z,10.33
2023-11-13T12:42:22.550Z,10.36
2023-11-13T12:43:04.071Z,10.28
2023-11-13T12:44:01.328Z,10.41
2023-11-13T12:45:09.530Z,10.36
2023-11-13T12:46:01.169Z,10.37
2023-11-13T12:47:01.164Z,10.43
2023-11-13T12:48:21.985Z,10.40
2023-11-13T12:49:00.922Z,10.43
2023-11-13T12:50:00.836Z,10.41
2023-11-13T12:51:00.764Z,10.40
2023-11-13T12:52:00.669Z,10.40
2023-11-13T12:53:00.589Z,10.41
2023-11-13T12:54:21.527Z,10.46
2023-11-13T12:55:00.433Z,10.46
2023-11-13T12:56:00.422Z,10.47
2023-11-13T12:57:09.786Z,10.47
2023-11-13T12:58:00.215Z,10.46
2023-11-13T12:59:00.115Z,10.47
2023-11-13T13:00:21.271Z,10.46
2023-11-13T13:00:59.939Z,10.55
2023-11-13T13:01:59.967Z,10.53
2023-11-13T13:02:59.810Z,10.63
2023-11-13T13:03:59.723Z,10.56
2023-11-13T13:05:01.808Z,10.63
2023-11-13T13:06:20.513Z,10.56
2023-11-13T13:07:02.233Z,10.58
2023-11-13T13:07:59.438Z,10.62
2023-11-13T13:08:59.287Z,10.65